sensor_id;sensor_type;location;lat;lon;timestamp;temperature;humidity
4097;DHT22;2062;50.694;7.246;2023-09-19T00:00:31;17.60;54.30
4097;DHT22;2062;50.694;7.246;2023-09-19T00:02:59;17.50;54.50
4097;DHT22;2062;50.694;7.246;2023-09-19T00:05:28;17.50;54.50
4097;DHT22;2062;50.694;7.246;2023-09-19T00:07:56;17.40;54.50
4097;DHT22;2062;50.694;7.246;2023-09-19T00:10:24;17.40;54.40
4097;DHT22;2062;50.694;7.246;2023-09-19T00:12:52;17.30;54.40
4097;DHT22;2062;50.694;7.246;2023-09-19T00:15:21;17.30;54.40
4097;DHT22;2062;50.694;7.246;2023-09-19T00:17:48;17.30;54.60
4097;DHT22;2062;50.694;7.246;2023-09-19T00:20:18;17.20;54.50
4097;DHT22;2062;50.694;7.246;2023-09-19T00:22:48;17.20;54.40
4097;DHT22;2062;50.694;7.246;2023-09-19T00:25:15;17.20;54.40
4097;DHT22;2062;50.694;7.246;2023-09-19T00:27:42;17.10;54.30
4097;DHT22;2062;50.694;7.246;2023-09-19T00:30:11;17.10;54.40
4097;DHT22;2062;50.694;7.246;2023-09-19T00:32:41;17.00;54.30
4097;DHT22;2062;50.694;7.246;2023-09-19T00:35:08;17.00;54.40
4097;DHT22;2062;50.694;7.246;2023-09-19T00:37:36;16.90;54.40
4097;DHT22;2062;50.694;7.246;2023-09-19T00:40:05;17.00;54.60
4097;DHT22;2062;50.694;7.246;2023-09-19T00:42:37;16.90;54.50
4097;DHT22;2062;50.694;7.246;2023-09-19T00:45:05;17.00;54.50
4097;DHT22;2062;50.694;7.246;2023-09-19T00:47:35;16.80;54.50
4097;DHT22;2062;50.694;7.246;2023-09-19T00:50:03;16.90;54.70
4097;DHT22;2062;50.694;7.246;2023-09-19T00:52:33;16.80;54.70
4097;DHT22;2062;50.694;7.246;2023-09-19T00:55:02;16.80;54.80
4097;DHT22;2062;50.694;7.246;2023-09-19T00:57:30;16.90;54.90
4097;DHT22;2062;50.694;7.246;2023-09-19T01:00:00;16.70;54.80
4097;DHT22;2062;50.694;7.246;2023-09-19T01:02:31;16.70;55.00
4097;DHT22;2062;50.694;7.246;2023-09-19T01:04:58;16.70;54.90
4097;DHT22;2062;50.694;7.246;2023-09-19T01:07:25;16.70;55.10
4097;DHT22;2062;50.694;7.246;2023-09-19T01:09:52;16.60;55.10
4097;DHT22;2062;50.694;7.246;2023-09-19T01:15:13;16.60;55.30
4097;DHT22;2062;50.694;7.246;2023-09-19T01:17:47;16.60;55.40
4097;DHT22;2062;50.694;7.246;2023-09-19T01:20:24;16.60;55.60
4097;DHT22;2062;50.694;7.246;2023-09-19T01:23:05;16.50;55.40
4097;DHT22;2062;50.694;7.246;2023-09-19T01:26:03;16.60;55.70
4097;DHT22;2062;50.694;7.246;2023-09-19T01:28:53;16.50;56.00
4097;DHT22;2062;50.694;7.246;2023-09-19T01:31:29;16.50;55.80
4097;DHT22;2062;50.694;7.246;2023-09-19T01:34:01;16.50;56.00
4097;DHT22;2062;50.694;7.246;2023-09-19T01:36:31;16.50;55.90
4097;DHT22;2062;50.694;7.246;2023-09-19T01:39:00;16.50;55.90
4097;DHT22;2062;50.694;7.246;2023-09-19T01:41:49;16.50;55.70
4097;DHT22;2062;50.694;7.246;2023-09-19T01:44:25;16.50;55.90
4097;DHT22;2062;50.694;7.246;2023-09-19T01:46:59;16.50;55.80
4097;DHT22;2062;50.694;7.246;2023-09-19T01:49:36;16.50;55.70
4097;DHT22;2062;50.694;7.246;2023-09-19T01:52:10;16.50;55.60
4097;DHT22;2062;50.694;7.246;2023-09-19T01:54:41;16.50;55.90
4097;DHT22;2062;50.694;7.246;2023-09-19T01:57:15;16.60;56.50
4097;DHT22;2062;50.694;7.246;2023-09-19T01:59:59;16.50;55.80
4097;DHT22;2062;50.694;7.246;2023-09-19T02:02:34;16.60;55.90
4097;DHT22;2062;50.694;7.246;2023-09-19T02:05:01;16.60;55.70
4097;DHT22;2062;50.694;7.246;2023-09-19T02:07:29;16.60;55.70
4097;DHT22;2062;50.694;7.246;2023-09-19T02:09:57;16.60;55.70
4097;DHT22;2062;50.694;7.246;2023-09-19T02:12:24;16.70;55.70
4097;DHT22;2062;50.694;7.246;2023-09-19T02:14:51;16.60;55.70
4097;DHT22;2062;50.694;7.246;2023-09-19T02:17:18;16.60;55.50
4097;DHT22;2062;50.694;7.246;2023-09-19T02:19:46;16.60;55.40
4097;DHT22;2062;50.694;7.246;2023-09-19T02:22:13;16.60;55.40
4097;DHT22;2062;50.694;7.246;2023-09-19T02:24:39;16.60;55.40
4097;DHT22;2062;50.694;7.246;2023-09-19T02:27:06;16.60;55.20
4097;DHT22;2062;50.694;7.246;2023-09-19T02:29:33;16.60;55.20
4097;DHT22;2062;50.694;7.246;2023-09-19T02:32:00;16.60;55.20
4097;DHT22;2062;50.694;7.246;2023-09-19T02:34:28;16.60;55.00
4097;DHT22;2062;50.694;7.246;2023-09-19T02:36:56;16.50;55.00
4097;DHT22;2062;50.694;7.246;2023-09-19T02:39:23;16.50;55.00
4097;DHT22;2062;50.694;7.246;2023-09-19T02:41:50;16.50;54.90
4097;DHT22;2062;50.694;7.246;2023-09-19T02:44:17;16.50;54.80
4097;DHT22;2062;50.694;7.246;2023-09-19T02:46:45;16.50;54.70
4097;DHT22;2062;50.694;7.246;2023-09-19T02:49:12;16.50;54.90
4097;DHT22;2062;50.694;7.246;2023-09-19T02:51:39;16.50;54.80
4097;DHT22;2062;50.694;7.246;2023-09-19T02:54:08;16.50;54.70
4097;DHT22;2062;50.694;7.246;2023-09-19T02:56:35;16.50;54.70
4097;DHT22;2062;50.694;7.246;2023-09-19T02:59:02;16.50;54.80
4097;DHT22;2062;50.694;7.246;2023-09-19T03:01:29;16.50;54.70
4097;DHT22;2062;50.694;7.246;2023-09-19T03:03:56;16.40;55.30
4097;DHT22;2062;50.694;7.246;2023-09-19T03:06:24;16.40;54.60
4097;DHT22;2062;50.694;7.246;2023-09-19T03:08:51;16.40;54.60
4097;DHT22;2062;50.694;7.246;2023-09-19T03:11:19;16.40;54.60
4097;DHT22;2062;50.694;7.246;2023-09-19T03:13:51;16.40;54.60
4097;DHT22;2062;50.694;7.246;2023-09-19T03:16:18;16.40;54.60
4097;DHT22;2062;50.694;7.246;2023-09-19T03:18:47;16.30;54.60
4097;DHT22;2062;50.694;7.246;2023-09-19T03:21:14;16.20;54.50
4097;DHT22;2062;50.694;7.246;2023-09-19T03:23:41;16.20;54.50
4097;DHT22;2062;50.694;7.246;2023-09-19T03:26:11;16.20;54.50
4097;DHT22;2062;50.694;7.246;2023-09-19T03:28:39;16.20;54.60
4097;DHT22;2062;50.694;7.246;2023-09-19T03:31:06;16.10;54.60
4097;DHT22;2062;50.694;7.246;2023-09-19T03:33:34;16.10;54.60
4097;DHT22;2062;50.694;7.246;2023-09-19T03:36:01;16.10;54.70
4097;DHT22;2062;50.694;7.246;2023-09-19T03:38:30;16.10;54.70
4097;DHT22;2062;50.694;7.246;2023-09-19T03:40:57;16.10;54.80
4097;DHT22;2062;50.694;7.246;2023-09-19T03:43:24;16.00;54.80
4097;DHT22;2062;50.694;7.246;2023-09-19T03:45:52;16.00;54.80
4097;DHT22;2062;50.694;7.246;2023-09-19T03:48:20;16.00;54.80
4097;DHT22;2062;50.694;7.246;2023-09-19T03:50:47;16.00;54.90
4097;DHT22;2062;50.694;7.246;2023-09-19T03:53:14;16.00;54.90
4097;DHT22;2062;50.694;7.246;2023-09-19T03:55:40;16.00;55.00
4097;DHT22;2062;50.694;7.246;2023-09-19T03:58:07;15.90;55.00
4097;DHT22;2062;50.694;7.246;2023-09-19T04:00:34;15.90;55.00
4097;DHT22;2062;50.694;7.246;2023-09-19T04:03:02;15.90;55.00
4097;DHT22;2062;50.694;7.246;2023-09-19T04:05:32;15.80;55.00
4097;DHT22;2062;50.694;7.246;2023-09-19T04:07:59;15.90;55.00
4097;DHT22;2062;50.694;7.246;2023-09-19T04:10:26;15.80;55.10
4097;DHT22;2062;50.694;7.246;2023-09-19T04:12:54;15.80;55.10
4097;DHT22;2062;50.694;7.246;2023-09-19T04:15:21;15.80;55.10
4097;DHT22;2062;50.694;7.246;2023-09-19T04:17:49;15.70;55.10
4097;DHT22;2062;50.694;7.246;2023-09-19T04:20:17;15.90;55.20
4097;DHT22;2062;50.694;7.246;2023-09-19T04:22:45;15.70;55.20
4097;DHT22;2062;50.694;7.246;2023-09-19T04:25:12;15.70;55.10
4097;DHT22;2062;50.694;7.246;2023-09-19T04:27:40;15.70;55.20
4097;DHT22;2062;50.694;7.246;2023-09-19T04:30:08;15.70;55.10
4097;DHT22;2062;50.694;7.246;2023-09-19T04:32:37;15.70;55.10
4097;DHT22;2062;50.694;7.246;2023-09-19T04:35:05;15.60;55.10
4097;DHT22;2062;50.694;7.246;2023-09-19T04:37:37;15.60;55.10
4097;DHT22;2062;50.694;7.246;2023-09-19T04:40:07;15.60;55.10
4097;DHT22;2062;50.694;7.246;2023-09-19T04:42:38;15.60;55.10
4097;DHT22;2062;50.694;7.246;2023-09-19T04:45:06;15.60;55.20
4097;DHT22;2062;50.694;7.246;2023-09-19T04:47:33;15.50;55.40
4097;DHT22;2062;50.694;7.246;2023-09-19T04:50:00;15.50;55.30
4097;DHT22;2062;50.694;7.246;2023-09-19T04:52:27;15.50;55.30
4097;DHT22;2062;50.694;7.246;2023-09-19T04:54:58;15.50;55.40
4097;DHT22;2062;50.694;7.246;2023-09-19T04:57:24;15.50;55.30
4097;DHT22;2062;50.694;7.246;2023-09-19T04:59:51;15.50;55.40
4097;DHT22;2062;50.694;7.246;2023-09-19T05:02:19;15.40;55.20
4097;DHT22;2062;50.694;7.246;2023-09-19T05:04:46;15.40;55.30
4097;DHT22;2062;50.694;7.246;2023-09-19T05:07:13;15.40;55.30
4097;DHT22;2062;50.694;7.246;2023-09-19T05:09:40;15.40;55.50
4097;DHT22;2062;50.694;7.246;2023-09-19T05:12:09;15.40;55.20
4097;DHT22;2062;50.694;7.246;2023-09-19T05:14:36;15.40;55.40
4097;DHT22;2062;50.694;7.246;2023-09-19T05:17:03;15.30;55.40
4097;DHT22;2062;50.694;7.246;2023-09-19T05:19:30;15.30;55.30
4097;DHT22;2062;50.694;7.246;2023-09-19T05:21:57;15.30;55.30
4097;DHT22;2062;50.694;7.246;2023-09-19T05:24:23;15.30;55.40
4097;DHT22;2062;50.694;7.246;2023-09-19T05:26:52;15.30;55.50
4097;DHT22;2062;50.694;7.246;2023-09-19T05:29:20;15.20;55.50
4097;DHT22;2062;50.694;7.246;2023-09-19T05:31:46;15.20;55.50
4097;DHT22;2062;50.694;7.246;2023-09-19T05:34:13;15.20;55.60
4097;DHT22;2062;50.694;7.246;2023-09-19T05:36:40;15.20;55.60
4097;DHT22;2062;50.694;7.246;2023-09-19T05:39:07;15.20;55.70
4097;DHT22;2062;50.694;7.246;2023-09-19T05:41:35;15.20;55.50
4097;DHT22;2062;50.694;7.246;2023-09-19T05:44:02;15.20;55.70
4097;DHT22;2062;50.694;7.246;2023-09-19T05:46:30;15.20;55.70
4097;DHT22;2062;50.694;7.246;2023-09-19T05:48:57;15.10;55.70
4097;DHT22;2062;50.694;7.246;2023-09-19T05:51:24;15.10;55.70
4097;DHT22;2062;50.694;7.246;2023-09-19T05:53:54;15.10;55.80
4097;DHT22;2062;50.694;7.246;2023-09-19T05:56:21;15.10;55.80
4097;DHT22;2062;50.694;7.246;2023-09-19T05:58:48;15.10;55.90
4097;DHT22;2062;50.694;7.246;2023-09-19T06:01:17;15.20;55.90
4097;DHT22;2062;50.694;7.246;2023-09-19T06:03:45;15.10;56.00
4097;DHT22;2062;50.694;7.246;2023-09-19T06:06:12;15.10;56.00
4097;DHT22;2062;50.694;7.246;2023-09-19T06:08:39;15.20;56.20
4097;DHT22;2062;50.694;7.246;2023-09-19T06:11:05;15.10;56.20
4097;DHT22;2062;50.694;7.246;2023-09-19T06:13:34;15.10;56.20
4097;DHT22;2062;50.694;7.246;2023-09-19T06:16:01;15.20;56.10
4097;DHT22;2062;50.694;7.246;2023-09-19T06:18:30;15.10;56.20
4097;DHT22;2062;50.694;7.246;2023-09-19T06:21:00;15.20;56.30
4097;DHT22;2062;50.694;7.246;2023-09-19T06:23:33;15.20;56.20
4097;DHT22;2062;50.694;7.246;2023-09-19T06:25:59;15.10;56.20
4097;DHT22;2062;50.694;7.246;2023-09-19T06:28:26;15.20;56.20
4097;DHT22;2062;50.694;7.246;2023-09-19T06:30:54;15.20;56.30
4097;DHT22;2062;50.694;7.246;2023-09-19T06:33:20;15.20;56.30
4097;DHT22;2062;50.694;7.246;2023-09-19T06:35:48;15.30;56.40
4097;DHT22;2062;50.694;7.246;2023-09-19T06:38:16;15.40;56.50
4097;DHT22;2062;50.694;7.246;2023-09-19T06:40:44;15.30;56.60
4097;DHT22;2062;50.694;7.246;2023-09-19T06:43:11;15.30;56.60
4097;DHT22;2062;50.694;7.246;2023-09-19T06:45:38;15.30;56.80
4097;DHT22;2062;50.694;7.246;2023-09-19T06:48:05;15.50;56.90
4097;DHT22;2062;50.694;7.246;2023-09-19T06:50:32;15.30;57.10
4097;DHT22;2062;50.694;7.246;2023-09-19T06:53:00;15.40;57.10
4097;DHT22;2062;50.694;7.246;2023-09-19T06:55:28;15.40;57.20
4097;DHT22;2062;50.694;7.246;2023-09-19T06:57:57;15.60;57.30
4097;DHT22;2062;50.694;7.246;2023-09-19T07:00:24;15.50;57.20
4097;DHT22;2062;50.694;7.246;2023-09-19T07:02:57;15.50;57.10
4097;DHT22;2062;50.694;7.246;2023-09-19T07:05:26;15.70;57.10
4097;DHT22;2062;50.694;7.246;2023-09-19T07:07:54;15.60;56.90
4097;DHT22;2062;50.694;7.246;2023-09-19T07:10:21;15.60;57.00
4097;DHT22;2062;50.694;7.246;2023-09-19T07:12:55;15.70;57.00
4097;DHT22;2062;50.694;7.246;2023-09-19T07:15:22;15.70;56.80
4097;DHT22;2062;50.694;7.246;2023-09-19T07:17:50;15.80;56.90
4097;DHT22;2062;50.694;7.246;2023-09-19T07:20:18;15.90;56.80
4097;DHT22;2062;50.694;7.246;2023-09-19T07:22:45;15.90;56.70
4097;DHT22;2062;50.694;7.246;2023-09-19T07:25:12;16.00;56.50
4097;DHT22;2062;50.694;7.246;2023-09-19T07:27:39;16.10;56.50
4097;DHT22;2062;50.694;7.246;2023-09-19T07:30:09;16.20;56.30
4097;DHT22;2062;50.694;7.246;2023-09-19T07:32:37;16.20;56.20
4097;DHT22;2062;50.694;7.246;2023-09-19T07:35:06;16.30;56.10
4097;DHT22;2062;50.694;7.246;2023-09-19T07:37:34;16.40;56.10
4097;DHT22;2062;50.694;7.246;2023-09-19T07:40:01;16.50;56.10
4097;DHT22;2062;50.694;7.246;2023-09-19T07:42:32;16.50;55.70
4097;DHT22;2062;50.694;7.246;2023-09-19T07:45:00;16.60;55.90
4097;DHT22;2062;50.694;7.246;2023-09-19T07:47:28;16.70;55.70
4097;DHT22;2062;50.694;7.246;2023-09-19T07:49:57;16.80;55.40
4097;DHT22;2062;50.694;7.246;2023-09-19T07:52:25;16.90;55.60
4097;DHT22;2062;50.694;7.246;2023-09-19T07:54:53;17.00;55.30
4097;DHT22;2062;50.694;7.246;2023-09-19T07:57:20;17.10;55.30
4097;DHT22;2062;50.694;7.246;2023-09-19T07:59:46;17.20;55.20
4097;DHT22;2062;50.694;7.246;2023-09-19T08:02:13;17.30;55.10
4097;DHT22;2062;50.694;7.246;2023-09-19T08:04:43;17.40;54.70
4097;DHT22;2062;50.694;7.246;2023-09-19T08:07:11;17.50;54.60
4097;DHT22;2062;50.694;7.246;2023-09-19T08:09:38;17.60;54.50
4097;DHT22;2062;50.694;7.246;2023-09-19T08:12:06;17.70;54.50
4097;DHT22;2062;50.694;7.246;2023-09-19T08:14:33;17.80;54.00
4097;DHT22;2062;50.694;7.246;2023-09-19T08:17:00;17.90;54.00
4097;DHT22;2062;50.694;7.246;2023-09-19T08:19:27;18.10;54.00
4097;DHT22;2062;50.694;7.246;2023-09-19T08:21:57;18.20;53.60
4097;DHT22;2062;50.694;7.246;2023-09-19T08:24:24;18.30;53.40
4097;DHT22;2062;50.694;7.246;2023-09-19T08:26:52;18.40;53.00
4097;DHT22;2062;50.694;7.246;2023-09-19T08:29:20;18.50;52.90
4097;DHT22;2062;50.694;7.246;2023-09-19T08:31:46;18.60;52.50
4097;DHT22;2062;50.694;7.246;2023-09-19T08:34:15;18.70;52.60
4097;DHT22;2062;50.694;7.246;2023-09-19T08:36:42;18.80;52.10
4097;DHT22;2062;50.694;7.246;2023-09-19T08:39:11;18.90;51.90
4097;DHT22;2062;50.694;7.246;2023-09-19T08:41:39;19.00;51.60
4097;DHT22;2062;50.694;7.246;2023-09-19T08:44:06;19.10;51.20
4097;DHT22;2062;50.694;7.246;2023-09-19T08:46:34;19.10;51.20
4097;DHT22;2062;50.694;7.246;2023-09-19T08:49:05;19.20;50.70
4097;DHT22;2062;50.694;7.246;2023-09-19T08:51:41;19.30;50.60
4097;DHT22;2062;50.694;7.246;2023-09-19T08:54:20;19.40;50.50
4097;DHT22;2062;50.694;7.246;2023-09-19T08:56:50;19.40;50.60
4097;DHT22;2062;50.694;7.246;2023-09-19T08:59:22;19.60;50.70
4097;DHT22;2062;50.694;7.246;2023-09-19T09:01:51;19.60;50.30
4097;DHT22;2062;50.694;7.246;2023-09-19T09:04:20;19.70;50.40
4097;DHT22;2062;50.694;7.246;2023-09-19T09:06:47;19.90;50.30
4097;DHT22;2062;50.694;7.246;2023-09-19T09:09:20;20.00;49.80
4097;DHT22;2062;50.694;7.246;2023-09-19T09:11:48;20.00;50.00
4097;DHT22;2062;50.694;7.246;2023-09-19T09:14:19;20.20;50.00
4097;DHT22;2062;50.694;7.246;2023-09-19T09:16:46;20.30;49.50
4097;DHT22;2062;50.694;7.246;2023-09-19T09:19:14;20.40;49.20
4097;DHT22;2062;50.694;7.246;2023-09-19T09:21:49;20.50;49.30
4097;DHT22;2062;50.694;7.246;2023-09-19T09:24:30;20.60;50.00
4097;DHT22;2062;50.694;7.246;2023-09-19T09:26:59;20.70;49.00
4097;DHT22;2062;50.694;7.246;2023-09-19T09:29:44;20.80;48.40
4097;DHT22;2062;50.694;7.246;2023-09-19T09:32:19;20.90;48.80
4097;DHT22;2062;50.694;7.246;2023-09-19T09:34:49;21.00;48.60
4097;DHT22;2062;50.694;7.246;2023-09-19T09:37:17;21.10;48.10
4097;DHT22;2062;50.694;7.246;2023-09-19T09:39:56;21.20;47.80
4097;DHT22;2062;50.694;7.246;2023-09-19T09:42:31;21.30;48.00
4097;DHT22;2062;50.694;7.246;2023-09-19T09:45:17;21.40;47.70
4097;DHT22;2062;50.694;7.246;2023-09-19T09:47:46;21.50;47.90
4097;DHT22;2062;50.694;7.246;2023-09-19T09:50:27;21.60;46.60
4097;DHT22;2062;50.694;7.246;2023-09-19T09:53:20;21.60;45.70
4097;DHT22;2062;50.694;7.246;2023-09-19T09:56:05;21.70;46.00
4097;DHT22;2062;50.694;7.246;2023-09-19T09:58:33;21.70;46.00
4097;DHT22;2062;50.694;7.246;2023-09-19T10:01:00;21.80;45.40
4097;DHT22;2062;50.694;7.246;2023-09-19T10:03:35;21.90;45.70
4097;DHT22;2062;50.694;7.246;2023-09-19T10:06:10;22.00;45.70
4097;DHT22;2062;50.694;7.246;2023-09-19T10:08:59;22.00;44.80
4097;DHT22;2062;50.694;7.246;2023-09-19T10:11:40;22.10;44.60
4097;DHT22;2062;50.694;7.246;2023-09-19T10:14:09;22.10;44.70
4097;DHT22;2062;50.694;7.246;2023-09-19T10:16:40;22.20;44.30
4097;DHT22;2062;50.694;7.246;2023-09-19T10:19:08;22.20;42.80
4097;DHT22;2062;50.694;7.246;2023-09-19T10:21:36;22.30;43.80
4097;DHT22;2062;50.694;7.246;2023-09-19T10:24:05;22.30;43.20
4097;DHT22;2062;50.694;7.246;2023-09-19T10:26:35;22.30;43.50
4097;DHT22;2062;50.694;7.246;2023-09-19T10:29:06;22.30;42.90
4097;DHT22;2062;50.694;7.246;2023-09-19T10:31:36;22.30;43.40
4097;DHT22;2062;50.694;7.246;2023-09-19T10:34:06;22.40;43.00
4097;DHT22;2062;50.694;7.246;2023-09-19T10:36:36;22.40;42.90
4097;DHT22;2062;50.694;7.246;2023-09-19T10:39:05;22.40;42.90
4097;DHT22;2062;50.694;7.246;2023-09-19T10:41:34;22.40;42.10
4097;DHT22;2062;50.694;7.246;2023-09-19T10:44:04;22.40;42.00
4097;DHT22;2062;50.694;7.246;2023-09-19T10:46:32;22.40;41.60
4097;DHT22;2062;50.694;7.246;2023-09-19T10:48:59;22.30;41.60
4097;DHT22;2062;50.694;7.246;2023-09-19T10:51:30;22.30;42.10
4097;DHT22;2062;50.694;7.246;2023-09-19T10:54:06;22.40;42.20
4097;DHT22;2062;50.694;7.246;2023-09-19T10:56:42;22.30;41.90
4097;DHT22;2062;50.694;7.246;2023-09-19T10:59:15;22.40;42.40
4097;DHT22;2062;50.694;7.246;2023-09-19T11:01:45;22.50;42.60
4097;DHT22;2062;50.694;7.246;2023-09-19T11:04:30;22.60;43.20
4097;DHT22;2062;50.694;7.246;2023-09-19T11:07:00;22.70;43.70
4097;DHT22;2062;50.694;7.246;2023-09-19T11:09:43;22.90;43.40
4097;DHT22;2062;50.694;7.246;2023-09-19T11:12:11;23.00;42.80
4097;DHT22;2062;50.694;7.246;2023-09-19T11:14:41;23.10;42.10
4097;DHT22;2062;50.694;7.246;2023-09-19T11:17:40;23.20;41.30
4097;DHT22;2062;50.694;7.246;2023-09-19T11:20:23;23.20;41.80
4097;DHT22;2062;50.694;7.246;2023-09-19T11:23:20;23.30;40.80
4097;DHT22;2062;50.694;7.246;2023-09-19T11:25:56;23.20;40.40
4097;DHT22;2062;50.694;7.246;2023-09-19T11:28:33;23.20;40.10
4097;DHT22;2062;50.694;7.246;2023-09-19T11:36:59;23.30;41.10
4097;DHT22;2062;50.694;7.246;2023-09-19T11:39:27;23.30;40.40
4097;DHT22;2062;50.694;7.246;2023-09-19T11:41:54;23.30;40.50
4097;DHT22;2062;50.694;7.246;2023-09-19T11:44:35;23.40;40.50
4097;DHT22;2062;50.694;7.246;2023-09-19T11:47:04;23.40;40.40
4097;DHT22;2062;50.694;7.246;2023-09-19T11:49:32;23.50;39.80
4097;DHT22;2062;50.694;7.246;2023-09-19T11:52:02;23.50;39.70
4097;DHT22;2062;50.694;7.246;2023-09-19T11:54:31;23.60;39.70
4097;DHT22;2062;50.694;7.246;2023-09-19T11:56:59;23.70;39.10
4097;DHT22;2062;50.694;7.246;2023-09-19T11:59:28;23.70;39.00
4097;DHT22;2062;50.694;7.246;2023-09-19T12:01:56;23.70;38.90
4097;DHT22;2062;50.694;7.246;2023-09-19T12:04:36;23.70;38.80
4097;DHT22;2062;50.694;7.246;2023-09-19T12:07:07;23.80;38.80
4097;DHT22;2062;50.694;7.246;2023-09-19T12:09:39;23.80;38.70
4097;DHT22;2062;50.694;7.246;2023-09-19T12:12:07;23.90;39.20
4097;DHT22;2062;50.694;7.246;2023-09-19T12:14:34;23.90;38.70
4097;DHT22;2062;50.694;7.246;2023-09-19T12:17:01;23.90;38.60
4097;DHT22;2062;50.694;7.246;2023-09-19T12:19:29;24.00;38.40
4097;DHT22;2062;50.694;7.246;2023-09-19T12:21:59;24.10;38.40
4097;DHT22;2062;50.694;7.246;2023-09-19T12:24:31;24.20;39.00
4097;DHT22;2062;50.694;7.246;2023-09-19T12:27:02;24.20;37.90
4097;DHT22;2062;50.694;7.246;2023-09-19T12:29:31;24.30;38.20
4097;DHT22;2062;50.694;7.246;2023-09-19T12:32:01;24.40;38.30
4097;DHT22;2062;50.694;7.246;2023-09-19T12:34:32;24.40;38.10
4097;DHT22;2062;50.694;7.246;2023-09-19T12:37:08;24.50;38.20
4097;DHT22;2062;50.694;7.246;2023-09-19T12:39:42;24.50;38.10
4097;DHT22;2062;50.694;7.246;2023-09-19T12:42:14;24.60;37.90
4097;DHT22;2062;50.694;7.246;2023-09-19T12:44:42;24.70;38.10
4097;DHT22;2062;50.694;7.246;2023-09-19T12:47:11;24.70;37.50
4097;DHT22;2062;50.694;7.246;2023-09-19T12:52:41;24.80;36.80
4097;DHT22;2062;50.694;7.246;2023-09-19T12:55:20;24.80;36.30
4097;DHT22;2062;50.694;7.246;2023-09-19T12:57:58;24.90;36.80
4097;DHT22;2062;50.694;7.246;2023-09-19T13:00:35;24.90;36.60
4097;DHT22;2062;50.694;7.246;2023-09-19T13:03:13;24.90;36.10
4097;DHT22;2062;50.694;7.246;2023-09-19T13:05:51;24.90;35.70
4097;DHT22;2062;50.694;7.246;2023-09-19T13:08:20;24.90;36.10
4097;DHT22;2062;50.694;7.246;2023-09-19T13:11:06;25.00;36.00
4097;DHT22;2062;50.694;7.246;2023-09-19T13:13:36;25.00;35.70
4097;DHT22;2062;50.694;7.246;2023-09-19T13:16:03;25.00;35.80
4097;DHT22;2062;50.694;7.246;2023-09-19T13:18:41;25.00;35.80
4097;DHT22;2062;50.694;7.246;2023-09-19T13:21:10;25.00;35.00
4097;DHT22;2062;50.694;7.246;2023-09-19T13:23:41;25.10;35.50
4097;DHT22;2062;50.694;7.246;2023-09-19T13:26:10;25.10;35.30
4097;DHT22;2062;50.694;7.246;2023-09-19T13:28:38;25.10;35.20
4097;DHT22;2062;50.694;7.246;2023-09-19T13:31:05;25.00;34.70
4097;DHT22;2062;50.694;7.246;2023-09-19T13:33:33;25.00;34.80
4097;DHT22;2062;50.694;7.246;2023-09-19T13:36:01;25.00;34.70
4097;DHT22;2062;50.694;7.246;2023-09-19T13:38:28;25.10;35.10
4097;DHT22;2062;50.694;7.246;2023-09-19T13:40:55;25.10;35.10
4097;DHT22;2062;50.694;7.246;2023-09-19T13:43:23;25.00;34.60
4097;DHT22;2062;50.694;7.246;2023-09-19T13:45:50;25.00;34.70
4097;DHT22;2062;50.694;7.246;2023-09-19T13:48:17;25.00;34.60
4097;DHT22;2062;50.694;7.246;2023-09-19T13:50:47;25.00;34.40
4097;DHT22;2062;50.694;7.246;2023-09-19T13:53:14;25.00;34.50
4097;DHT22;2062;50.694;7.246;2023-09-19T13:55:43;25.00;34.40
4097;DHT22;2062;50.694;7.246;2023-09-19T13:58:10;25.00;34.40
4097;DHT22;2062;50.694;7.246;2023-09-19T14:00:39;24.90;34.10
4097;DHT22;2062;50.694;7.246;2023-09-19T14:03:06;24.90;34.30
4097;DHT22;2062;50.694;7.246;2023-09-19T14:05:33;24.80;34.50
4097;DHT22;2062;50.694;7.246;2023-09-19T14:08:00;24.90;35.80
4097;DHT22;2062;50.694;7.246;2023-09-19T14:10:28;24.90;34.40
4097;DHT22;2062;50.694;7.246;2023-09-19T14:12:56;24.90;34.60
4097;DHT22;2062;50.694;7.246;2023-09-19T14:15:25;24.90;34.60
4097;DHT22;2062;50.694;7.246;2023-09-19T14:17:57;24.90;34.80
4097;DHT22;2062;50.694;7.246;2023-09-19T14:20:24;24.90;34.50
4097;DHT22;2062;50.694;7.246;2023-09-19T14:22:52;24.90;35.30
4097;DHT22;2062;50.694;7.246;2023-09-19T14:25:19;24.90;34.20
4097;DHT22;2062;50.694;7.246;2023-09-19T14:27:46;24.90;34.80
4097;DHT22;2062;50.694;7.246;2023-09-19T14:30:14;24.90;34.40
4097;DHT22;2062;50.694;7.246;2023-09-19T14:32:41;24.90;34.40
4097;DHT22;2062;50.694;7.246;2023-09-19T14:35:09;24.90;34.60
4097;DHT22;2062;50.694;7.246;2023-09-19T14:37:36;24.90;34.40
4097;DHT22;2062;50.694;7.246;2023-09-19T14:40:06;24.90;34.20
4097;DHT22;2062;50.694;7.246;2023-09-19T14:42:34;24.80;34.00
4097;DHT22;2062;50.694;7.246;2023-09-19T14:45:04;24.80;33.90
4097;DHT22;2062;50.694;7.246;2023-09-19T14:47:31;24.70;34.30
4097;DHT22;2062;50.694;7.246;2023-09-19T14:49:59;24.60;34.00
4097;DHT22;2062;50.694;7.246;2023-09-19T14:52:27;24.50;33.70
4097;DHT22;2062;50.694;7.246;2023-09-19T14:54:55;24.50;33.70
4097;DHT22;2062;50.694;7.246;2023-09-19T14:57:21;24.40;33.60
4097;DHT22;2062;50.694;7.246;2023-09-19T14:59:50;24.30;33.40
4097;DHT22;2062;50.694;7.246;2023-09-19T15:02:17;24.20;33.30
4097;DHT22;2062;50.694;7.246;2023-09-19T15:04:44;24.10;33.90
4097;DHT22;2062;50.694;7.246;2023-09-19T15:07:12;24.00;33.60
4097;DHT22;2062;50.694;7.246;2023-09-19T15:09:41;24.00;33.70
4097;DHT22;2062;50.694;7.246;2023-09-19T15:12:09;23.90;33.70
4097;DHT22;2062;50.694;7.246;2023-09-19T15:14:37;23.90;33.90
4097;DHT22;2062;50.694;7.246;2023-09-19T15:17:03;23.90;33.80
4097;DHT22;2062;50.694;7.246;2023-09-19T15:19:31;23.80;33.80
4097;DHT22;2062;50.694;7.246;2023-09-19T15:21:58;23.80;33.70
4097;DHT22;2062;50.694;7.246;2023-09-19T15:24:25;23.70;33.90
4097;DHT22;2062;50.694;7.246;2023-09-19T15:26:54;23.70;33.80
4097;DHT22;2062;50.694;7.246;2023-09-19T15:29:22;23.70;34.00
4097;DHT22;2062;50.694;7.246;2023-09-19T15:31:49;23.60;34.10
4097;DHT22;2062;50.694;7.246;2023-09-19T15:34:16;23.60;34.00
4097;DHT22;2062;50.694;7.246;2023-09-19T15:36:43;23.50;34.10
4097;DHT22;2062;50.694;7.246;2023-09-19T15:39:11;23.50;34.40
4097;DHT22;2062;50.694;7.246;2023-09-19T15:41:42;23.40;34.20
4097;DHT22;2062;50.694;7.246;2023-09-19T15:44:13;23.30;34.30
4097;DHT22;2062;50.694;7.246;2023-09-19T15:46:41;23.30;34.40
4097;DHT22;2062;50.694;7.246;2023-09-19T15:49:09;23.20;34.30
4097;DHT22;2062;50.694;7.246;2023-09-19T15:51:37;23.10;34.40
4097;DHT22;2062;50.694;7.246;2023-09-19T15:54:08;23.10;34.60
4097;DHT22;2062;50.694;7.246;2023-09-19T15:56:35;23.00;34.40
4097;DHT22;2062;50.694;7.246;2023-09-19T15:59:02;23.00;34.50
4097;DHT22;2062;50.694;7.246;2023-09-19T16:01:30;22.90;34.50
4097;DHT22;2062;50.694;7.246;2023-09-19T16:03:57;22.80;34.60
4097;DHT22;2062;50.694;7.246;2023-09-19T16:06:26;22.70;34.20
4097;DHT22;2062;50.694;7.246;2023-09-19T16:08:55;22.60;34.60
4097;DHT22;2062;50.694;7.246;2023-09-19T16:11:24;22.50;34.60
4097;DHT22;2062;50.694;7.246;2023-09-19T16:13:52;22.50;35.00
4097;DHT22;2062;50.694;7.246;2023-09-19T16:16:21;22.30;35.00
4097;DHT22;2062;50.694;7.246;2023-09-19T16:18:52;22.30;35.40
4097;DHT22;2062;50.694;7.246;2023-09-19T16:21:21;22.20;35.20
4097;DHT22;2062;50.694;7.246;2023-09-19T16:23:49;22.10;35.30
4097;DHT22;2062;50.694;7.246;2023-09-19T16:26:17;22.00;35.40
4097;DHT22;2062;50.694;7.246;2023-09-19T16:28:46;21.90;35.50